createdAt,value
2023-05-08T00:00:18.911Z,12.00
2023-05-08T00:02:51.656Z,11.87
2023-05-08T00:05:20.231Z,11.97
2023-05-08T00:07:48.465Z,11.96
2023-05-08T00:10:16.673Z,12.09
2023-05-08T00:12:46.219Z,12.06
2023-05-08T00:15:14.380Z,11.71
2023-05-08T00:17:48.144Z,12.01
2023-05-08T00:20:16.463Z,12.03
2023-05-08T00:22:50.276Z,12.00
2023-05-08T00:25:18.751Z,11.76
2023-05-08T00:27:48.312Z,11.96
2023-05-08T00:30:18.540Z,11.93
2023-05-08T00:32:47.065Z,11.90
2023-05-08T00:35:15.488Z,11.77
2023-05-08T00:37:43.819Z,11.85
2023-05-08T00:40:13.278Z,11.67
2023-05-08T00:42:41.734Z,11.74
2023-05-08T00:45:14.624Z,11.61
2023-05-08T00:47:43.456Z,11.55
2023-05-08T00:50:12.966Z,11.46
2023-05-08T00:52:44.069Z,11.43
2023-05-08T00:55:12.356Z,11.39
2023-05-08T00:57:44.269Z,11.36
2023-05-08T01:00:19.431Z,11.38
2023-05-08T01:02:48.495Z,11.36
2023-05-08T01:05:16.763Z,11.36
2023-05-08T01:07:45.214Z,11.36
2023-05-08T01:10:13.574Z,11.35
2023-05-08T01:13:06.398Z,11.02
2023-05-08T01:15:44.878Z,11.18
2023-05-08T01:18:21.195Z,11.22
2023-05-08T01:21:14.575Z,10.97
2023-05-08T01:24:37.704Z,10.78
2023-05-08T01:27:54.609Z,11.00
2023-05-08T01:31:02.869Z,10.76
2023-05-08T01:33:37.898Z,10.86
2023-05-08T01:36:22.227Z,10.78
2023-05-08T01:39:05.279Z,10.79
2023-05-08T01:41:42.242Z,10.82
2023-05-08T01:44:17.916Z,10.67
2023-05-08T01:46:51.300Z,10.70
2023-05-08T01:49:31.700Z,10.71
2023-05-08T01:52:04.688Z,10.63
2023-05-08T01:54:43.993Z,10.72
2023-05-08T01:57:13.616Z,10.66
2023-05-08T01:59:44.100Z,10.63
2023-05-08T02:02:13.263Z,10.75
2023-05-08T02:04:45.529Z,10.82
2023-05-08T02:07:13.988Z,10.84
2023-05-08T02:09:44.029Z,10.87
2023-05-08T02:12:14.434Z,10.98
2023-05-08T02:14:45.976Z,11.04
2023-05-08T02:17:17.731Z,11.06
2023-05-08T02:19:49.012Z,11.02
2023-05-08T02:22:19.633Z,10.97
2023-05-08T02:24:48.177Z,10.87
2023-05-08T02:27:17.590Z,10.95
2023-05-08T02:29:46.136Z,10.77
2023-05-08T02:32:17.280Z,10.79
2023-05-08T02:35:01.889Z,10.57
2023-05-08T02:37:32.181Z,10.79
2023-05-08T02:40:00.830Z,10.77
2023-05-08T02:42:29.124Z,10.66
2023-05-08T02:44:57.502Z,10.62
2023-05-08T02:47:31.087Z,10.54
2023-05-08T02:50:05.981Z,10.46
2023-05-08T02:52:44.147Z,10.56
2023-05-08T02:55:24.214Z,10.60
2023-05-08T02:58:04.095Z,10.82
2023-05-08T03:00:38.957Z,10.87
2023-05-08T03:03:16.576Z,10.96
2023-05-08T03:05:52.634Z,10.92
2023-05-08T03:08:27.147Z,10.99
2023-05-08T03:11:00.941Z,10.85
2023-05-08T03:13:33.307Z,11.12
2023-05-08T03:16:04.632Z,11.24
2023-05-08T03:18:37.138Z,10.93
2023-05-08T03:21:09.239Z,11.18
2023-05-08T03:23:40.407Z,11.22
2023-05-08T03:26:09.789Z,11.32
2023-05-08T03:28:39.482Z,11.36
2023-05-08T03:31:08.363Z,11.32
2023-05-08T03:33:39.844Z,11.35
2023-05-08T03:36:10.315Z,11.36
2023-05-08T03:38:38.592Z,11.40
2023-05-08T03:41:08.818Z,11.37
2023-05-08T03:43:38.989Z,11.21
2023-05-08T03:46:08.071Z,11.40
2023-05-08T03:48:36.996Z,11.57
2023-05-08T03:51:06.516Z,11.52
2023-05-08T03:53:38.588Z,11.38
2023-05-08T03:56:07.173Z,11.79
2023-05-08T03:58:42.700Z,11.86
2023-05-08T04:01:29.709Z,11.92
2023-05-08T04:04:08.113Z,11.85
2023-05-08T04:06:50.097Z,12.09
2023-05-08T04:09:35.598Z,12.16
2023-05-08T04:12:13.836Z,12.26
2023-05-08T04:14:49.574Z,12.32
2023-05-08T04:17:29.046Z,12.35
2023-05-08T04:20:06.017Z,12.10
2023-05-08T04:22:36.516Z,12.19
2023-05-08T04:25:10.287Z,12.46
2023-05-08T04:27:39.425Z,12.48
2023-05-08T04:30:10.871Z,12.43
2023-05-08T04:32:43.428Z,12.29
2023-05-08T04:35:14.469Z,11.99
2023-05-08T04:37:43.933Z,11.66
2023-05-08T04:40:14.559Z,11.98
2023-05-08T04:42:47.185Z,12.01
2023-05-08T04:45:20.218Z,12.25
2023-05-08T04:47:48.474Z,12.40
2023-05-08T04:50:17.353Z,12.24
2023-05-08T04:52:45.516Z,12.50
2023-05-08T04:55:15.148Z,12.47
2023-05-08T04:57:44.531Z,12.60
2023-05-08T05:00:15.012Z,12.64
2023-05-08T05:02:44.740Z,12.60
2023-05-08T05:05:13.348Z,12.78
2023-05-08T05:07:42.503Z,12.85
2023-05-08T05:10:11.973Z,12.89
2023-05-08T05:12:41.550Z,12.92
2023-05-08T05:15:11.680Z,12.78
2023-05-08T05:17:41.029Z,12.96
2023-05-08T05:20:12.264Z,13.01
2023-05-08T05:22:40.747Z,13.01
2023-05-08T05:25:11.179Z,12.99
2023-05-08T05:27:41.452Z,13.03
2023-05-08T05:30:10.939Z,13.00
2023-05-08T05:32:39.520Z,13.03
2023-05-08T05:35:12.115Z,13.04
2023-05-08T05:37:41.308Z,12.98
2023-05-08T05:40:13.414Z,13.04
2023-05-08T05:42:44.343Z,13.00
2023-05-08T05:45:13.435Z,12.96
2023-05-08T05:47:50.506Z,13.05
2023-05-08T05:50:22.561Z,13.10
2023-05-08T05:52:51.078Z,13.09
2023-05-08T05:55:19.432Z,13.17
2023-05-08T05:57:50.006Z,13.22
2023-05-08T06:00:19.516Z,13.28
2023-05-08T06:02:54.704Z,13.36
2023-05-08T06:05:23.160Z,13.37
2023-05-08T06:07:51.413Z,13.34
2023-05-08T06:10:20.007Z,13.46
2023-05-08T06:12:49.579Z,13.40
2023-05-08T06:15:18.494Z,13.25
2023-05-08T06:17:48.123Z,13.28
2023-05-08T06:20:16.480Z,13.17
2023-05-08T06:22:44.716Z,13.33
2023-05-08T06:25:13.154Z,13.46
2023-05-08T06:27:41.494Z,13.52
2023-05-08T06:30:12.754Z,13.68
2023-05-08T06:32:41.072Z,13.56
2023-05-08T06:35:12.302Z,13.56
2023-05-08T06:37:40.695Z,13.45
2023-05-08T06:40:12.529Z,13.47
2023-05-08T06:42:42.085Z,13.53
2023-05-08T06:45:12.576Z,13.58
2023-05-08T06:47:41.226Z,13.53
2023-05-08T06:50:10.614Z,13.78
2023-05-08T06:52:40.781Z,13.88
2023-05-08T06:55:09.980Z,13.97
2023-05-08T06:57:43.389Z,14.08
2023-05-08T07:00:15.002Z,14.15
2023-05-08T07:02:43.263Z,14.35
2023-05-08T07:05:11.853Z,14.45
2023-05-08T07:07:40.248Z,14.30
2023-05-08T07:10:09.597Z,14.23
2023-05-08T07:12:38.112Z,14.23
2023-05-08T07:15:17.789Z,14.36
2023-05-08T07:17:54.920Z,14.32
2023-05-08T07:20:24.425Z,14.23
2023-05-08T07:22:52.863Z,14.52
2023-05-08T07:25:21.025Z,14.41
2023-05-08T07:27:49.430Z,14.74
2023-05-08T07:30:17.885Z,14.62
2023-05-08T07:32:46.127Z,14.71
2023-05-08T07:35:15.839Z,14.66
2023-05-08T07:37:44.679Z,14.99
2023-05-08T07:40:13.279Z,14.80
2023-05-08T07:42:42.783Z,14.64
2023-05-08T07:45:13.992Z,15.05
2023-05-08T07:47:51.409Z,15.45
2023-05-08T07:50:22.276Z,15.56
2023-05-08T07:52:50.995Z,15.94
2023-05-08T07:55:22.599Z,16.20
2023-05-08T07:57:50.912Z,16.30
2023-05-08T08:00:22.800Z,16.71
2023-05-08T08:02:53.215Z,16.89
2023-05-08T08:05:23.187Z,17.17
2023-05-08T08:07:56.941Z,17.52
2023-05-08T08:10:35.814Z,17.34
2023-05-08T08:13:16.039Z,17.61
2023-05-08T08:15:44.270Z,17.86
2023-05-08T08:18:13.033Z,17.71
2023-05-08T08:20:42.710Z,18.05
2023-05-08T08:23:10.933Z,17.92
2023-05-08T08:25:42.494Z,17.57
2023-05-08T08:28:16.302Z,17.70
2023-05-08T08:30:44.461Z,17.85
2023-05-08T08:33:12.783Z,18.24
2023-05-08T08:35:45.139Z,18.08
2023-05-08T08:38:13.516Z,18.22
2023-05-08T08:40:41.895Z,18.34
2023-05-08T08:43:10.943Z,18.43
2023-05-08T08:45:39.614Z,18.20
2023-05-08T08:48:12.643Z,18.57
2023-05-08T08:50:47.255Z,18.28
2023-05-08T08:53:25.586Z,18.07
2023-05-08T08:55:57.057Z,18.13
2023-05-08T08:58:36.526Z,18.24
2023-05-08T09:01:08.957Z,18.38
2023-05-08T09:03:37.393Z,18.17
2023-05-08T09:06:07.764Z,17.61
2023-05-08T09:08:36.366Z,17.52
2023-05-08T09:11:06.924Z,17.88
2023-05-08T09:13:35.293Z,17.93
2023-05-08T09:16:03.881Z,17.60
2023-05-08T09:18:32.323Z,17.80
2023-05-08T09:21:01.821Z,17.94
2023-05-08T09:23:31.569Z,17.93
2023-05-08T09:26:01.758Z,17.81
2023-05-08T09:28:36.078Z,17.73
2023-05-08T09:31:10.100Z,18.19
2023-05-08T09:33:49.254Z,18.20
2023-05-08T09:36:29.408Z,18.55
2023-05-08T09:39:02.766Z,18.90
2023-05-08T09:41:35.488Z,18.98
2023-05-08T09:44:07.029Z,18.90
2023-05-08T09:46:36.163Z,19.05
2023-05-08T09:49:07.764Z,19.27
2023-05-08T09:51:37.669Z,19.30
2023-05-08T09:54:25.386Z,19.57
2023-05-08T09:56:54.471Z,19.48
2023-05-08T09:59:30.839Z,19.31
2023-05-08T10:02:11.021Z,19.06
2023-05-08T10:04:42.305Z,19.18
2023-05-08T10:07:10.466Z,19.08
2023-05-08T10:09:50.319Z,18.92
2023-05-08T10:12:22.253Z,18.88
2023-05-08T10:14:50.774Z,18.85
2023-05-08T10:17:31.536Z,18.66
2023-05-08T10:20:04.904Z,18.54
2023-05-08T10:22:37.976Z,18.88
2023-05-08T10:25:17.228Z,19.23
2023-05-08T10:27:54.921Z,19.23
2023-05-08T10:30:28.221Z,19.19
2023-05-08T10:32:59.348Z,19.16
2023-05-08T10:35:28.361Z,19.57
2023-05-08T10:37:58.230Z,19.64
2023-05-08T10:40:28.022Z,19.82
2023-05-08T10:42:58.524Z,19.90
2023-05-08T10:45:29.773Z,19.78
2023-05-08T10:48:09.775Z,19.75
2023-05-08T10:50:56.471Z,19.87
2023-05-08T10:53:37.853Z,20.12
2023-05-08T10:56:09.493Z,20.34
2023-05-08T10:58:39.492Z,19.83
2023-05-08T11:01:20.178Z,19.94
2023-05-08T11:03:51.974Z,20.55
2023-05-08T11:06:45.969Z,20.50
2023-05-08T11:09:25.377Z,20.38
2023-05-08T11:12:09.228Z,20.71
2023-05-08T11:14:43.493Z,20.21
2023-05-08T11:17:13.804Z,20.06
2023-05-08T11:20:02.235Z,19.95
2023-05-08T11:22:33.214Z,19.95
2023-05-08T11:25:05.410Z,19.78
2023-05-08T11:27:41.522Z,19.98
2023-05-08T11:30:35.913Z,20.15
2023-05-08T11:33:30.710Z,20.06
2023-05-08T11:36:02.530Z,20.18
2023-05-08T11:38:38.145Z,20.39
2023-05-08T11:41:08.730Z,20.03
2023-05-08T11:44:20.953Z,19.42
2023-05-08T11:46:53.684Z,18.93
2023-05-08T11:49:27.127Z,18.75
2023-05-08T11:52:00.803Z,18.72
2023-05-08T11:54:33.658Z,18.90
2023-05-08T11:57:02.858Z,18.66
2023-05-08T11:59:37.719Z,18.87
2023-05-08T12:02:09.196Z,18.68
2023-05-08T12:04:50.986Z,18.93
2023-05-08T12:07:20.628Z,18.89
2023-05-08T12:09:53.526Z,19.39
2023-05-08T12:12:26.572Z,19.70
2023-05-08T12:14:56.393Z,19.70
2023-05-08T12:17:24.879Z,19.88
2023-05-08T12:19:56.628Z,19.61
2023-05-08T12:22:26.388Z,19.96
2023-05-08T12:24:55.835Z,20.36
2023-05-08T12:27:26.445Z,20.70
2023-05-08T12:29:56.043Z,20.79
2023-05-08T12:32:24.929Z,20.73
2023-05-08T12:34:56.684Z,20.32
2023-05-08T12:37:27.980Z,20.20
2023-05-08T12:39:56.488Z,20.00
2023-05-08T12:42:40.709Z,20.05
2023-05-08T12:45:20.787Z,19.87
2023-05-08T12:47:50.663Z,20.25
2023-05-08T12:50:25.225Z,20.12
2023-05-08T12:52:54.344Z,20.15
2023-05-08T12:55:27.311Z,20.13
2023-05-08T12:58:04.326Z,20.38
2023-05-08T13:00:39.324Z,19.98
2023-05-08T13:03:09.102Z,19.56
2023-05-08T13:05:39.660Z,19.21
2023-05-08T13:08:10.859Z,18.89
2023-05-08T13:10:50.149Z,18.59
2023-05-08T13:13:20.789Z,18.33
2023-05-08T13:15:52.120Z,18.20
2023-05-08T13:18:22.570Z,17.80
2023-05-08T13:20:50.820Z,17.94
2023-05-08T13:23:18.995Z,17.98
2023-05-08T13:25:47.311Z,17.63
2023-05-08T13:28:15.866Z,17.78
2023-05-08T13:30:45.156Z,17.75
2023-05-08T13:33:14.737Z,18.28
2023-05-08T13:35:44.863Z,18.48
2023-05-08T13:38:13.175Z,18.68
2023-05-08T13:40:41.565Z,19.08
2023-05-08T13:43:09.841Z,19.05
2023-05-08T13:45:40.916Z,19.32
2023-05-08T13:48:09.219Z,19.72
2023-05-08T13:50:42.062Z,19.81
2023-05-08T13:53:11.413Z,19.62
2023-05-08T13:55:39.872Z,19.57
2023-05-08T13:58:08.187Z,19.73
2023-05-08T14:00:36.532Z,20.11
2023-05-08T14:03:08.914Z,19.98
2023-05-08T14:05:38.570Z,19.91
2023-05-08T14:08:06.769Z,20.02
2023-05-08T14:10:35.018Z,19.92
2023-05-08T14:13:03.280Z,19.68
2023-05-08T14:15:37.092Z,19.70
2023-05-08T14:18:06.432Z,19.22
2023-05-08T14:20:34.670Z,19.33
2023-05-08T14:23:04.260Z,19.50
2023-05-08T14:25:32.417Z,19.50
2023-05-08T14:28:00.661Z,19.35
2023-05-08T14:30:30.896Z,19.33
2023-05-08T14:33:02.123Z,19.22
2023-05-08T14:35:30.404Z,19.11
2023-05-08T14:37:58.831Z,19.18
2023-05-08T14:40:31.485Z,19.01
2023-05-08T14:42:59.750Z,19.35
2023-05-08T14:45:27.997Z,18.85
2023-05-08T14:47:56.179Z,19.10
2023-05-08T14:50:24.679Z,19.03
2023-05-08T14:52:52.906Z,19.15
2023-05-08T14:55:22.087Z,19.05
2023-05-08T14:57:52.817Z,18.69
2023-05-08T15:00:21.535Z,18.35
2023-05-08T15:02:54.341Z,18.24
2023-05-08T15:05:22.849Z,17.86
2023-05-08T15:07:55.815Z,17.55
2023-05-08T15:10:24.321Z,17.46
2023-05-08T15:12:54.041Z,17.37
2023-05-08T15:15:22.481Z,17.68
2023-05-08T15:17:50.713Z,17.38
2023-05-08T15:20:21.279Z,17.17
2023-05-08T15:22:50.806Z,17.24
2023-05-08T15:25:19.407Z,17.37
2023-05-08T15:27:53.806Z,16.88
2023-05-08T15:30:24.965Z,17.15
2023-05-08T15:32:56.336Z,17.09
2023-05-08T15:35:27.343Z,17.44
2023-05-08T15:37:58.634Z,17.24
2023-05-08T15:40:26.847Z,17.52
2023-05-08T15:42:55.113Z,16.95
2023-05-08T15:45:25.095Z,16.92
2023-05-08T15:47:53.293Z,16.91
2023-05-08T15:50:22.289Z,16.68
2023-05-08T15:52:55.569Z,16.41
2023-05-08T15:55:23.957Z,15.96
2023-05-08T15:57:56.622Z,15.94
2023-05-08T16:00:43.972Z,15.93
2023-05-08T16:03:16.566Z,15.90
2023-05-08T16:05:44.897Z,16.38
2023-05-08T16:08:15.043Z,16.92
2023-05-08T16:10:43.724Z,17.41
2023-05-08T16:13:24.073Z,17.70
2023-05-08T16:15:56.636Z,17.61
2023-05-08T16:18:29.530Z,17.29
2023-05-08T16:20:57.929Z,17.22
2023-05-08T16:23:26.404Z,16.85
2023-05-08T16:25:54.821Z,16.41
2023-05-08T16:28:23.008Z,16.33
2023-05-08T16:30:51.265Z,16.32
2023-05-08T16:33:21.339Z,16.09
2023-05-08T16:35:49.713Z,15.69
2023-05-08T16:38:20.470Z,15.55
2023-05-08T16:40:50.655Z,15.67
2023-05-08T16:43:19.016Z,15.45
2023-05-08T16:45:47.359Z,15.44
2023-05-08T16:48:15.527Z,15.31
2023-05-08T16:50:45.127Z,14.94
2023-05-08T16:53:13.336Z,15.25
2023-05-08T16:55:41.625Z,14.98
2023-05-08T16:58:10.205Z,15.02
2023-05-08T17:00:38.676Z,14.76
2023-05-08T17:03:09.867Z,14.65
2023-05-08T17:05:41.027Z,14.96
2023-05-08T17:08:11.828Z,15.21
2023-05-08T17:10:41.372Z,15.06
2023-05-08T17:13:15.572Z,15.46
2023-05-08T17:15:46.907Z,15.18
2023-05-08T17:18:15.192Z,15.31
2023-05-08T17:20:43.419Z,15.47
2023-05-08T17:23:13.156Z,15.49
2023-05-08T17:25:41.423Z,15.72
2023-05-08T17:28:09.610Z,15.52
2023-05-08T17:30:40.294Z,15.52
2023-05-08T17:33:11.336Z,15.62
2023-05-08T17:35:42.183Z,15.61
2023-05-08T17:38:16.985Z,15.50
2023-05-08T17:40:46.654Z,15.45
2023-05-08T17:43:14.904Z,15.57
2023-05-08T17:45:48.318Z,15.20
2023-05-08T17:48:18.948Z,15.07
2023-05-08T17:50:47.159Z,15.04
2023-05-08T17:53:20.055Z,15.06
2023-05-08T17:55:50.868Z,15.01
2023-05-08T17:58:19.047Z,14.64
2023-05-08T18:00:47.186Z,14.68
2023-05-08T18:03:15.862Z,14.62
2023-05-08T18:05:45.936Z,14.65
2023-05-08T18:08:17.408Z,14.52
2023-05-08T18:10:47.548Z,14.48
2023-05-08T18:13:18.268Z,14.64
2023-05-08T18:15:49.625Z,14.76
2023-05-08T18:18:20.542Z,14.48
2023-05-08T18:20:48.730Z,14.61
2023-05-08T18:23:18.361Z,14.70
2023-05-08T18:25:49.582Z,14.75
2023-05-08T18:28:17.848Z,14.79
2023-05-08T18:30:46.146Z,14.77
2023-05-08T18:33:14.430Z,14.73
2023-05-08T18:35:42.539Z,14.70
2023-05-08T18:38:13.814Z,14.73
2023-05-08T18:40:44.839Z,14.79
2023-05-08T18:43:15.937Z,14.67
2023-05-08T18:45:44.127Z,14.72
2023-05-08T18:48:14.579Z,14.66
2023-05-08T18:50:42.783Z,14.34
2023-05-08T18:53:10.971Z,14.53
2023-05-08T18:55:40.709Z,14.46
2023-05-08T18:58:13.629Z,14.32
2023-05-08T19:00:42.131Z,14.06
2023-05-08T19:03:14.969Z,13.98
2023-05-08T19:05:43.310Z,13.95
2023-05-08T19:08:15.749Z,13.91
2023-05-08T19:10:44.045Z,13.66
2023-05-08T19:13:14.423Z,13.66
2023-05-08T19:15:54.145Z,13.71
2023-05-08T19:18:26.970Z,13.23
2023-05-08T19:20:55.191Z,13.31
2023-05-08T19:23:23.646Z,13.36
2023-05-08T19:25:52.879Z,13.32
2023-05-08T19:28:27.774Z,13.44
2023-05-08T19:30:55.977Z,13.49
2023-05-08T19:33:24.348Z,13.45
2023-05-08T19:35:52.513Z,13.34
2023-05-08T19:38:23.652Z,13.54
2023-05-08T19:40:56.296Z,13.56
2023-05-08T19:43:27.486Z,13.37
2023-05-08T19:45:56.844Z,13.37
2023-05-08T19:48:25.295Z,13.26
2023-05-08T19:51:00.301Z,13.16
2023-05-08T19:53:31.384Z,13.34
2023-05-08T19:55:59.632Z,13.34
2023-05-08T19:58:29.219Z,13.35
2023-05-08T20:00:57.450Z,13.45
2023-05-08T20:03:25.812Z,13.52
2023-05-08T20:05:54.909Z,13.28
2023-05-08T20:08:23.150Z,13.25
2023-05-08T20:10:51.519Z,13.29
2023-05-08T20:13:19.916Z,13.21
2023-05-08T20:15:54.081Z,13.48
2023-05-08T20:18:24.383Z,13.45
2023-05-08T20:20:52.588Z,13.47
2023-05-08T20:23:20.762Z,13.46
2023-05-08T20:25:48.984Z,13.47
2023-05-08T20:28:22.268Z,13.33
2023-05-08T20:30:52.753Z,13.40
2023-05-08T20:33:22.377Z,13.42
2023-05-08T20:35:56.619Z,13.40
2023-05-08T20:38:24.876Z,13.29
2023-05-08T20:41:00.128Z,13.27
2023-05-08T20:43:29.338Z,13.17
2023-05-08T20:45:59.102Z,13.08
2023-05-08T20:48:27.550Z,12.98
2023-05-08T20:50:57.620Z,13.04
2023-05-08T20:53:32.045Z,13.03
2023-05-08T20:56:18.642Z,13.03
2023-05-08T20:58:49.945Z,12.97
2023-05-08T21:01:23.132Z,12.97
2023-05-08T21:03:51.420Z,12.84
2023-05-08T21:06:22.444Z,13.09
2023-05-08T21:08:57.829Z,13.09
2023-05-08T21:11:27.837Z,13.14
2023-05-08T21:13:57.846Z,13.02
2023-05-08T21:16:28.966Z,12.94
2023-05-08T21:19:09.841Z,13.15
2023-05-08T21:21:39.021Z,13.20
2023-05-08T21:24:09.857Z,12.77
2023-05-08T21:26:38.031Z,12.94
2023-05-08T21:29:06.397Z,13.04
2023-05-08T21:31:36.371Z,13.08
2023-05-08T21:34:15.035Z,13.07
2023-05-08T21:36:43.443Z,13.04
2023-05-08T21:39:11.611Z,13.08
2023-05-08T21:41:39.797Z,13.07
2023-05-08T21:44:08.796Z,13.01
2023-05-08T21:46:39.903Z,13.16
2023-05-08T21:49:08.352Z,13.16
2023-05-08T21:51:41.840Z,13.12
2023-05-08T21:54:14.162Z,13.08
2023-05-08T21:56:42.380Z,13.06
2023-05-08T21:59:10.562Z,13.06
2023-05-08T22:01:44.841Z,13.00
2023-05-08T22:04:13.055Z,12.92
2023-05-08T22:06:49.059Z,12.89
2023-05-08T22:09:18.828Z,12.84
2023-05-08T22:11:47.012Z,12.81
2023-05-08T22:14:23.990Z,12.83
2023-05-08T22:16:59.075Z,12.71
2023-05-08T22:19:30.057Z,12.77
2023-05-08T22:21:59.587Z,12.70
2023-05-08T22:24:28.146Z,12.66
2023-05-08T22:26:56.345Z,12.67
2023-05-08T22:29:27.911Z,12.64
2023-05-08T22:32:00.282Z,12.71
2023-05-08T22:34:28.465Z,12.76
2023-05-08T22:36:58.928Z,12.72
2023-05-08T22:39:29.700Z,12.57
2023-05-08T22:42:00.355Z,12.60
2023-05-08T22:44:31.706Z,12.57
2023-05-08T22:47:04.404Z,12.52
2023-05-08T22:49:35.300Z,12.45
2023-05-08T22:52:08.288Z,12.42
2023-05-08T22:54:36.779Z,12.29
2023-05-08T22:57:05.196Z,12.26
2023-05-08T22:59:38.582Z,12.40
2023-05-08T23:02:09.760Z,12.40
2023-05-08T23:04:37.975Z,12.33
2023-05-08T23:07:06.934Z,12.29
2023-05-08T23:09:37.657Z,12.32
2023-05-08T23:12:11.367Z,12.19
2023-05-08T23:14:39.487Z,12.32
2023-05-08T23:17:15.115Z,12.30
2023-05-08T23:19:44.819Z,12.32
2023-05-08T23:22:13.097Z,12.32
2023-05-08T23:24:46.283Z,12.26
2023-05-08T23:27:17.204Z,12.25
2023-05-08T23:29:47.228Z,12.22
2023-05-08T23:32:24.741Z,12.24
2023-05-08T23:34:52.994Z,12.29
2023-05-08T23:37:25.926Z,12.25
2023-05-08T23:39:56.493Z,12.18
2023-05-08T23:42:24.654Z,12.18
2023-05-08T23:44:59.344Z,12.12
2023-05-08T23:47:29.993Z,12.10
2023-05-08T23:50:00.219Z,11.91
2023-05-08T23:52:31.416Z,11.98
2023-05-08T23:55:04.857Z,11.97
2023-05-08T23:57:36.059Z,12.02
